createdAt,value
2022-09-07T00:01:12.650Z,4.40
2022-09-07T00:03:40.593Z,3.90
2022-09-07T00:06:12.362Z,4.00
2022-09-07T00:08:44.197Z,4.75
2022-09-07T00:11:16.292Z,4.72
2022-09-07T00:13:46.866Z,3.97
2022-09-07T00:16:18.297Z,3.90
2022-09-07T00:18:46.805Z,4.07
2022-09-07T00:21:17.555Z,4.32
2022-09-07T00:23:49.604Z,3.38
2022-09-07T00:26:20.662Z,3.22
2022-09-07T00:28:49.699Z,2.17
2022-09-07T00:31:20.502Z,1.63
2022-09-07T00:33:49.942Z,2.17
2022-09-07T00:36:18.655Z,1.60
2022-09-07T00:38:48.134Z,1.60
2022-09-07T00:41:17.904Z,1.80
2022-09-07T00:43:49.782Z,1.60
2022-09-07T00:46:20.243Z,1.60
2022-09-07T00:48:55.919Z,1.38
2022-09-07T00:51:33.506Z,1.45
2022-09-07T00:54:08.008Z,1.83
2022-09-07T00:56:40.520Z,1.60
2022-09-07T00:59:10.164Z,1.60
2022-09-07T01:01:40.041Z,1.65
2022-09-07T01:04:09.159Z,1.42
2022-09-07T01:06:39.972Z,1.52
2022-09-07T01:09:12.516Z,1.70
2022-09-07T01:11:41.211Z,1.55
2022-09-07T01:14:14.739Z,1.67
2022-09-07T01:17:00.355Z,1.55
2022-09-07T01:20:19.706Z,1.48
2022-09-07T01:23:34.322Z,1.70
2022-09-07T01:27:00.185Z,1.40
2022-09-07T01:29:36.730Z,1.80
2022-09-07T01:32:17.641Z,1.58
2022-09-07T01:34:52.935Z,1.85
2022-09-07T01:37:33.934Z,1.73
2022-09-07T01:40:10.760Z,1.98
2022-09-07T01:42:50.088Z,1.50
2022-09-07T01:45:25.359Z,1.80
2022-09-07T01:47:58.145Z,1.40
2022-09-07T01:50:34.747Z,1.60
2022-09-07T01:53:09.697Z,1.42
2022-09-07T01:55:43.837Z,1.75
2022-09-07T01:58:19.270Z,1.73
2022-09-07T02:00:56.196Z,1.70
2022-09-07T02:03:33.765Z,1.30
2022-09-07T02:06:15.170Z,1.45
2022-09-07T02:08:53.665Z,1.40
2022-09-07T02:11:27.918Z,1.35
2022-09-07T02:14:01.601Z,1.02
2022-09-07T02:16:33.471Z,1.25
2022-09-07T02:19:06.322Z,1.20
2022-09-07T02:21:39.159Z,1.58
2022-09-07T02:24:16.879Z,1.30
2022-09-07T02:26:50.634Z,1.00
2022-09-07T02:29:18.657Z,0.90
2022-09-07T02:31:48.139Z,1.08
2022-09-07T02:34:16.174Z,0.90
2022-09-07T02:36:50.728Z,1.20
2022-09-07T02:39:19.317Z,1.00
2022-09-07T02:41:47.881Z,1.08
2022-09-07T02:44:21.256Z,1.20
2022-09-07T02:47:23.960Z,1.13
2022-09-07T02:50:23.375Z,1.45
2022-09-07T02:53:11.738Z,1.23
2022-09-07T02:55:57.453Z,1.50
2022-09-07T02:58:40.357Z,1.20
2022-09-07T03:01:19.454Z,1.33
2022-09-07T03:04:03.746Z,1.40
2022-09-07T03:06:39.348Z,1.55
2022-09-07T03:09:13.838Z,1.50
2022-09-07T03:11:41.955Z,1.30
2022-09-07T03:14:15.405Z,1.63
2022-09-07T03:16:44.039Z,1.70
2022-09-07T03:19:13.283Z,1.88
2022-09-07T03:21:41.209Z,1.67
2022-09-07T03:24:09.700Z,1.90
2022-09-07T03:26:43.710Z,1.50
2022-09-07T03:29:11.705Z,1.45
2022-09-07T03:31:39.935Z,1.73
2022-09-07T03:34:08.153Z,1.33
2022-09-07T03:36:37.764Z,1.60
2022-09-07T03:39:07.027Z,1.42
2022-09-07T03:41:35.645Z,1.50
2022-09-07T03:44:05.867Z,1.65
2022-09-07T03:46:34.286Z,1.60
2022-09-07T03:49:02.475Z,1.50
2022-09-07T03:51:30.978Z,1.67
2022-09-07T03:54:00.567Z,1.55
2022-09-07T03:56:28.599Z,1.42
2022-09-07T03:58:56.826Z,1.75
2022-09-07T04:01:27.056Z,1.42
2022-09-07T04:04:02.199Z,1.60
2022-09-07T04:06:31.709Z,1.55
2022-09-07T04:09:05.001Z,1.42
2022-09-07T04:11:33.225Z,1.63
2022-09-07T04:14:01.545Z,1.67
2022-09-07T04:16:30.274Z,2.00
2022-09-07T04:18:59.086Z,2.00
2022-09-07T04:21:29.314Z,1.55
2022-09-07T04:23:57.967Z,2.03
2022-09-07T04:26:30.118Z,1.92
2022-09-07T04:28:58.915Z,1.80
2022-09-07T04:31:27.218Z,1.83
2022-09-07T04:33:56.366Z,1.90
2022-09-07T04:36:25.608Z,1.95
2022-09-07T04:38:58.121Z,2.15
2022-09-07T04:41:29.321Z,2.55
2022-09-07T04:43:59.682Z,2.05
2022-09-07T04:46:30.757Z,2.03
2022-09-07T04:49:01.147Z,2.15
2022-09-07T04:51:31.928Z,2.10
2022-09-07T04:54:02.868Z,2.05
2022-09-07T04:56:33.014Z,2.30
2022-09-07T04:59:02.696Z,2.25
2022-09-07T05:01:31.063Z,2.03
2022-09-07T05:04:01.289Z,2.00
2022-09-07T05:06:29.890Z,2.00
2022-09-07T05:08:59.842Z,2.35
2022-09-07T05:11:29.998Z,2.20
2022-09-07T05:14:00.478Z,2.45
2022-09-07T05:16:29.877Z,2.30
2022-09-07T05:19:01.164Z,3.03
2022-09-07T05:21:31.894Z,2.88
2022-09-07T05:24:01.567Z,2.60
2022-09-07T05:26:32.948Z,2.38
2022-09-07T05:31:54.610Z,2.17
2022-09-07T05:34:30.480Z,2.20
2022-09-07T05:36:59.260Z,2.40
2022-09-07T05:39:27.927Z,2.78
2022-09-07T05:41:56.219Z,2.88
2022-09-07T05:47:14.365Z,2.88
2022-09-07T05:49:42.493Z,2.42
2022-09-07T05:52:10.806Z,3.03
2022-09-07T05:54:38.769Z,2.83
2022-09-07T05:57:07.298Z,2.72
2022-09-07T05:59:36.955Z,2.72
2022-09-07T06:02:05.219Z,2.40
2022-09-07T06:04:33.611Z,2.90
2022-09-07T06:12:37.452Z,2.90
2022-09-07T06:15:08.677Z,2.72
2022-09-07T06:17:36.576Z,2.70
2022-09-07T06:20:05.696Z,3.35
2022-09-07T06:22:36.137Z,3.17
2022-09-07T06:25:04.286Z,2.80
2022-09-07T06:27:32.210Z,3.40
2022-09-07T06:30:00.163Z,3.22
2022-09-07T06:32:45.240Z,3.45
2022-09-07T06:35:14.745Z,3.38
2022-09-07T06:37:43.034Z,3.17
2022-09-07T06:40:12.672Z,3.22
2022-09-07T06:42:40.786Z,3.80
2022-09-07T06:45:10.899Z,3.28
2022-09-07T06:47:41.152Z,3.20
2022-09-07T06:50:10.857Z,2.97
2022-09-07T06:55:28.577Z,3.00
2022-09-07T06:57:56.590Z,3.50
2022-09-07T07:00:24.636Z,2.95
2022-09-07T07:02:54.027Z,2.75
2022-09-07T07:05:22.052Z,2.92
2022-09-07T07:07:50.009Z,3.05
2022-09-07T07:10:23.649Z,2.85
2022-09-07T07:12:56.595Z,2.97
2022-09-07T07:15:26.270Z,2.95
2022-09-07T07:17:59.073Z,2.80
2022-09-07T07:20:28.527Z,3.30
2022-09-07T07:22:56.597Z,3.03
2022-09-07T07:25:24.824Z,3.67
2022-09-07T07:27:52.783Z,3.17
2022-09-07T07:30:22.676Z,3.45
2022-09-07T07:32:50.598Z,3.25
2022-09-07T07:35:20.072Z,3.85
2022-09-07T07:37:47.997Z,4.05
2022-09-07T07:40:17.905Z,4.30
2022-09-07T07:42:48.713Z,3.30
2022-09-07T07:48:05.031Z,4.15
2022-09-07T07:50:34.726Z,3.88
2022-09-07T07:55:51.081Z,4.05
2022-09-07T07:58:19.404Z,4.50
2022-09-07T08:00:56.125Z,4.82
2022-09-07T08:03:26.170Z,4.90
2022-09-07T08:05:56.280Z,4.45
2022-09-07T08:08:25.203Z,4.40
2022-09-07T08:10:53.428Z,4.82
2022-09-07T08:13:22.065Z,4.53
2022-09-07T08:15:50.003Z,5.15
2022-09-07T08:18:18.887Z,5.10
2022-09-07T08:20:46.816Z,4.72
2022-09-07T08:23:16.022Z,5.80
2022-09-07T08:25:52.724Z,5.88
2022-09-07T08:28:21.545Z,5.50
2022-09-07T08:30:49.471Z,6.68
2022-09-07T08:33:17.662Z,7.72
2022-09-07T08:35:57.113Z,7.45
2022-09-07T08:38:27.198Z,8.45
2022-09-07T08:40:55.525Z,6.93
2022-09-07T08:43:39.389Z,8.32
2022-09-07T08:46:20.784Z,7.90
2022-09-07T08:48:49.710Z,8.50
2022-09-07T08:51:26.749Z,9.30
2022-09-07T08:53:56.102Z,8.30
2022-09-07T08:56:33.756Z,8.85
2022-09-07T08:59:14.579Z,9.55
2022-09-07T09:02:27.103Z,9.30
2022-09-07T09:04:33.044Z,9.82
2022-09-07T09:07:16.451Z,8.63
2022-09-07T09:10:16.023Z,8.70
2022-09-07T09:13:10.693Z,10.00
2022-09-07T09:15:53.697Z,8.80
2022-09-07T09:18:57.488Z,10.05
2022-09-07T09:21:26.959Z,10.38
2022-09-07T09:24:02.776Z,10.52
2022-09-07T09:26:35.327Z,10.20
2022-09-07T09:29:15.070Z,10.90
2022-09-07T09:31:43.224Z,10.20
2022-09-07T09:34:15.374Z,11.23
2022-09-07T09:36:47.573Z,11.15
2022-09-07T09:39:31.725Z,11.55
2022-09-07T09:42:16.808Z,11.02
2022-09-07T09:44:45.764Z,12.30
2022-09-07T09:47:31.061Z,13.30
2022-09-07T09:50:02.864Z,12.55
2022-09-07T09:52:45.058Z,14.80
2022-09-07T09:55:35.146Z,13.23
2022-09-07T10:03:58.429Z,10.85
2022-09-07T10:06:29.505Z,11.75
2022-09-07T10:08:59.837Z,11.85
2022-09-07T10:14:37.329Z,9.52
2022-09-07T10:17:22.238Z,9.88
2022-09-07T10:19:50.438Z,10.27
2022-09-07T10:22:31.894Z,10.45
2022-09-07T10:25:01.098Z,8.07
2022-09-07T10:27:40.698Z,10.15
2022-09-07T10:30:17.426Z,9.98
2022-09-07T10:33:03.878Z,8.88
2022-09-07T10:35:37.664Z,9.57
2022-09-07T10:38:29.228Z,9.05
2022-09-07T10:41:05.735Z,8.48
2022-09-07T10:43:44.250Z,8.43
2022-09-07T10:49:29.646Z,7.50
2022-09-07T10:52:07.507Z,7.78
2022-09-07T10:54:49.819Z,6.55
2022-09-07T10:57:49.039Z,5.63
2022-09-07T11:00:20.389Z,4.60
2022-09-07T11:03:30.114Z,5.00
2022-09-07T11:06:14.965Z,3.97
2022-09-07T11:09:17.382Z,3.58
2022-09-07T11:12:02.464Z,4.25
2022-09-07T11:14:39.712Z,3.95
2022-09-07T11:17:16.727Z,3.28
2022-09-07T11:19:54.827Z,2.53
2022-09-07T11:22:34.055Z,2.50
2022-09-07T11:25:30.817Z,3.10
2022-09-07T11:28:05.515Z,3.40
2022-09-07T11:30:38.146Z,3.22
2022-09-07T11:33:17.678Z,2.67
2022-09-07T11:35:53.286Z,3.65
2022-09-07T11:38:31.234Z,3.53
2022-09-07T11:41:16.173Z,4.80
2022-09-07T11:43:47.934Z,4.32
2022-09-07T11:46:22.562Z,4.70
2022-09-07T11:48:57.555Z,5.78
2022-09-07T11:51:39.972Z,6.93
2022-09-07T11:54:29.903Z,6.95
2022-09-07T11:57:22.867Z,6.97
2022-09-07T12:00:03.769Z,6.28
2022-09-07T12:03:22.633Z,8.50
2022-09-07T12:06:38.476Z,6.50
2022-09-07T12:09:36.376Z,6.90
2022-09-07T12:12:52.871Z,7.07
2022-09-07T12:15:36.188Z,8.02
2022-09-07T12:18:27.803Z,8.98
2022-09-07T12:20:55.965Z,7.13
2022-09-07T12:23:30.480Z,8.60
2022-09-07T12:26:51.286Z,7.55
2022-09-07T12:29:24.778Z,8.55
2022-09-07T12:31:59.854Z,7.55
2022-09-07T12:34:55.454Z,8.80
2022-09-07T12:37:44.414Z,8.15
2022-09-07T12:41:00.165Z,9.60
2022-09-07T12:44:16.672Z,9.13
2022-09-07T12:46:53.110Z,7.68
2022-09-07T12:50:10.254Z,7.75
2022-09-07T12:53:25.060Z,8.02
2022-09-07T12:56:29.353Z,9.43
2022-09-07T12:59:27.397Z,9.43
2022-09-07T13:02:18.163Z,8.82
2022-09-07T13:05:04.203Z,7.03
2022-09-07T13:08:14.787Z,8.13
2022-09-07T13:10:44.107Z,8.85
2022-09-07T13:14:02.771Z,7.78
2022-09-07T13:17:15.921Z,7.40
2022-09-07T13:20:20.380Z,7.90
2022-09-07T13:23:22.177Z,6.97
2022-09-07T13:25:54.696Z,7.55
2022-09-07T13:28:41.441Z,6.90
2022-09-07T13:31:40.044Z,6.43
2022-09-07T13:34:55.759Z,5.82
2022-09-07T13:37:27.159Z,6.18
2022-09-07T13:39:58.402Z,8.00
2022-09-07T13:42:31.044Z,6.53
2022-09-07T13:45:01.627Z,8.15
2022-09-07T13:47:49.350Z,6.47
2022-09-07T13:50:28.175Z,7.25
2022-09-07T13:53:22.185Z,7.32
2022-09-07T13:56:03.098Z,9.38
2022-09-07T13:58:37.030Z,7.00
2022-09-07T14:01:15.883Z,9.32
2022-09-07T14:03:51.600Z,7.00
2022-09-07T14:06:34.780Z,7.32
2022-09-07T14:09:06.937Z,6.53
2022-09-07T14:11:44.501Z,7.75
2022-09-07T14:14:19.247Z,8.75
2022-09-07T14:16:50.800Z,7.53
2022-09-07T14:19:24.221Z,8.40
2022-09-07T14:22:01.877Z,8.15
2022-09-07T14:24:36.689Z,9.20
2022-09-07T14:27:06.671Z,8.02
2022-09-07T14:29:37.077Z,7.28
2022-09-07T14:32:14.241Z,8.52
2022-09-07T14:34:45.515Z,8.65
2022-09-07T14:37:17.120Z,8.55
2022-09-07T14:39:49.811Z,9.38
2022-09-07T14:42:23.093Z,7.43
2022-09-07T14:44:57.748Z,7.78
2022-09-07T14:47:29.750Z,9.20
2022-09-07T14:50:05.603Z,8.20
2022-09-07T14:52:42.992Z,8.00
2022-09-07T14:55:32.244Z,9.38
2022-09-07T14:58:12.312Z,8.75
2022-09-07T15:00:42.580Z,7.40
2022-09-07T15:03:29.054Z,10.05
2022-09-07T15:06:01.149Z,8.57
2022-09-07T15:08:41.589Z,6.53
2022-09-07T15:14:09.488Z,6.88
2022-09-07T15:16:42.455Z,7.35
2022-09-07T15:19:32.540Z,7.32
2022-09-07T15:22:13.693Z,8.07
2022-09-07T15:24:41.630Z,7.70
2022-09-07T15:27:20.244Z,8.10
2022-09-07T15:29:48.219Z,9.85
2022-09-07T15:32:18.208Z,7.57
2022-09-07T15:34:46.426Z,8.57
2022-09-07T15:40:04.663Z,7.05
2022-09-07T15:45:20.634Z,6.70
2022-09-07T15:47:53.018Z,6.95
2022-09-07T15:50:23.243Z,7.68
2022-09-07T15:52:52.639Z,6.05
2022-09-07T15:55:20.547Z,6.28
2022-09-07T15:57:51.190Z,6.55
2022-09-07T16:00:21.347Z,6.40
2022-09-07T16:03:06.384Z,5.35
2022-09-07T16:05:35.401Z,5.97
2022-09-07T16:10:54.088Z,5.93
2022-09-07T16:13:23.873Z,5.72
2022-09-07T16:15:52.017Z,5.55
2022-09-07T16:18:20.344Z,5.78
2022-09-07T16:20:52.552Z,5.28
2022-09-07T16:23:22.154Z,5.50
2022-09-07T16:25:57.855Z,5.20
2022-09-07T16:28:27.456Z,5.55
2022-09-07T16:30:56.281Z,6.07
2022-09-07T16:33:31.579Z,4.93
2022-09-07T16:36:09.179Z,5.57
2022-09-07T16:38:47.296Z,4.57
2022-09-07T16:41:17.976Z,5.00
2022-09-07T16:43:46.232Z,5.50
2022-09-07T16:46:17.436Z,4.80
2022-09-07T16:48:45.976Z,5.10
2022-09-07T16:51:18.671Z,4.78
2022-09-07T16:53:49.920Z,4.40
2022-09-07T16:56:21.106Z,5.05
2022-09-07T16:58:51.522Z,4.25
2022-09-07T17:01:22.225Z,4.47
2022-09-07T17:03:51.515Z,5.47
2022-09-07T17:06:23.477Z,4.25
2022-09-07T17:08:53.971Z,4.85
2022-09-07T17:11:24.955Z,5.18
2022-09-07T17:13:54.134Z,4.07
2022-09-07T17:16:24.534Z,4.80
2022-09-07T17:21:41.757Z,5.03
2022-09-07T17:24:12.737Z,4.63
2022-09-07T17:26:42.473Z,4.85
2022-09-07T17:29:13.130Z,4.63
2022-09-07T17:34:30.053Z,4.20
2022-09-07T17:37:00.526Z,4.32
2022-09-07T17:39:30.536Z,4.85
2022-09-07T17:41:58.501Z,4.13
2022-09-07T17:44:38.093Z,5.35
2022-09-07T17:47:12.748Z,4.57
2022-09-07T17:49:42.897Z,4.43
2022-09-07T17:52:10.761Z,3.90
2022-09-07T17:54:40.470Z,4.20
2022-09-07T17:57:08.390Z,3.90
2022-09-07T18:02:24.188Z,4.20
2022-09-07T18:04:52.130Z,4.28
2022-09-07T18:07:20.140Z,4.25
2022-09-07T18:09:49.388Z,4.68
2022-09-07T18:12:17.251Z,4.22
2022-09-07T18:14:45.158Z,4.28
2022-09-07T18:17:13.130Z,4.32
2022-09-07T18:19:41.243Z,4.40
2022-09-07T18:22:09.313Z,4.07
2022-09-07T18:24:37.306Z,4.50
2022-09-07T18:27:07.994Z,3.95
2022-09-07T18:29:36.061Z,4.22
2022-09-07T18:32:09.512Z,4.18
2022-09-07T18:34:41.031Z,4.20
2022-09-07T18:37:11.892Z,4.05
2022-09-07T18:39:40.911Z,4.45
2022-09-07T18:42:11.062Z,4.63
2022-09-07T18:47:29.418Z,4.57
2022-09-07T18:49:58.572Z,4.03
2022-09-07T18:55:10.383Z,4.60
2022-09-07T18:57:39.839Z,4.25
2022-09-07T19:00:10.888Z,5.20
2022-09-07T19:02:39.109Z,8.45
2022-09-07T19:07:56.679Z,6.22
2022-09-07T19:10:24.578Z,7.78
2022-09-07T19:12:53.837Z,6.82
2022-09-07T19:15:21.745Z,6.32
2022-09-07T19:17:49.681Z,5.78
2022-09-07T19:20:18.341Z,6.47
2022-09-07T19:22:46.375Z,7.68
2022-09-07T19:25:14.285Z,6.57
2022-09-07T19:27:42.330Z,6.68
2022-09-07T19:30:13.479Z,6.55
2022-09-07T19:32:41.383Z,7.93
2022-09-07T19:35:10.288Z,8.68
2022-09-07T19:37:38.273Z,9.02
2022-09-07T19:43:18.648Z,10.27
2022-09-07T19:45:47.847Z,10.05
2022-09-07T19:48:17.071Z,8.57
2022-09-07T19:50:46.766Z,10.05
2022-09-07T19:53:14.986Z,9.23
2022-09-07T19:55:44.451Z,9.75
2022-09-07T19:58:13.103Z,9.77
2022-09-07T20:00:41.792Z,9.98
2022-09-07T20:03:11.862Z,9.82
2022-09-07T20:05:40.594Z,9.70
2022-09-07T20:08:08.671Z,9.93
2022-09-07T20:10:37.161Z,11.13
2022-09-07T20:13:05.129Z,12.13
2022-09-07T20:15:33.225Z,11.30
2022-09-07T20:18:01.179Z,10.90
2022-09-07T20:20:34.321Z,10.38
2022-09-07T20:23:02.244Z,10.10
2022-09-07T20:25:30.542Z,10.63
2022-09-07T20:27:58.520Z,10.77
2022-09-07T20:30:27.362Z,9.93
2022-09-07T20:32:55.238Z,10.40
2022-09-07T20:35:23.128Z,10.30
2022-09-07T20:37:52.515Z,10.23
2022-09-07T20:40:20.625Z,10.48
2022-09-07T20:42:48.679Z,9.98
2022-09-07T20:45:16.644Z,11.05
2022-09-07T20:47:45.166Z,10.20
2022-09-07T20:50:13.106Z,11.23
2022-09-07T20:52:41.079Z,10.55
2022-09-07T20:55:11.009Z,11.20
2022-09-07T20:57:39.387Z,10.13
2022-09-07T21:00:08.874Z,11.13
2022-09-07T21:02:37.028Z,10.80
2022-09-07T21:05:05.654Z,11.27
2022-09-07T21:07:33.534Z,11.07
2022-09-07T21:10:06.475Z,10.60
2022-09-07T21:12:36.972Z,11.55
2022-09-07T21:16:02.565Z,10.20
2022-09-07T21:21:38.397Z,10.45
2022-09-07T21:38:12.661Z,11.63
2022-09-07T22:46:45.752Z,13.13
2022-09-07T23:11:18.481Z,12.35
2022-09-07T23:28:45.349Z,13.45
2022-09-07T23:37:16.391Z,13.73
2022-09-07T23:41:30.909Z,13.68
2022-09-07T23:57:11.160Z,13.77
